Lewisville's Hourly Summary for Tuesday, March 14, 2017
Hour Temp
(f)
RH
(%)
Solar Rad.
(MJ/m2)
Rainfall
(in)
Wind
(mph)
3/14/2017 12:00 AM 47 41 0 0 7.82
3/14/2017 1:00 AM 45 45 0 0 7.72
3/14/2017 2:00 AM 44 47 0 0 7.9
3/14/2017 3:00 AM 42 54 0 0 4.42
3/14/2017 4:00 AM 40 56 0 0 1.31
3/14/2017 5:00 AM 40 54 0 0 2.24
3/14/2017 6:00 AM 40 53 0 0 3.88
3/14/2017 7:00 AM 40 57 0 0 3.94
3/14/2017 8:00 AM 38 63 0.03 0 0.87
3/14/2017 9:00 AM 40 57 0.51 0 1.61
3/14/2017 10:00 AM 43 48 1.13 0 3.73
3/14/2017 11:00 AM 47 43 1.78 0 4.09
3/14/2017 12:00 PM 50 41 2.33 0 3.61
3/14/2017 1:00 PM 52 36 2.6 0 3.57
3/14/2017 2:00 PM 55 33 2.75 0 4.5
3/14/2017 3:00 PM 57 32 2.58 0 5.28
3/14/2017 4:00 PM 59 28 2.32 0 6.03
3/14/2017 5:00 PM 62 27 1.86 0 4.53
3/14/2017 6:00 PM 63 28 1.1 0 3.12
3/14/2017 7:00 PM 61 29 0.27 0 3.19
3/14/2017 8:00 PM 58 35 0.04 0 4.97
3/14/2017 9:00 PM 56 39 0 0 3.27
3/14/2017 10:00 PM 55 44 0 0 0.7
3/14/2017 11:00 PM 54 44 0 0 4.22
Data Summary 49 43 19.30 0.00 4.02